Time;durP1;ratioP1;P1;durP2;ratioP2;P2;SDS_P1;SDS_P2;PMS_P1;PMS_P2;Temp;Humidity;BMP_temperature;BMP_pressure;BME280_temperature;BME280_humidity;BME280_pressure;Samples;Min_cycle;Max_cycle;Signal;HPM_P1;HPM_P2
2023/07/30 00:02:23;;;;;;;;;;;17.40;99.90;;;;;;7337625;19;109580;-70
2023/07/30 00:04:50;;;;;;;;;;;17.40;99.90;;;;;;7343344;19;108649;-70
2023/07/30 00:07:17;;;;;;;;;;;17.40;99.90;;;;;;7336025;19;110520;-70
2023/07/30 00:09:44;;;;;;;;;;;17.30;99.90;;;;;;7336053;19;108864;-69
2023/07/30 00:12:11;;;;;;;;;;;17.30;99.90;;;;;;7339188;19;110178;-70
2023/07/30 00:14:38;;;;;;;;;;;17.30;99.90;;;;;;7338044;19;109056;-69
2023/07/30 00:17:05;;;;;;;;;;;17.30;99.90;;;;;;7339302;19;108828;-69
2023/07/30 00:19:33;;;;;;;;;;;17.30;99.90;;;;;;7337404;19;109802;-70
2023/07/30 00:22:00;;;;;;;;;;;17.20;99.90;;;;;;7338021;19;109482;-70
2023/07/30 00:24:28;;;;;;;;;;;17.20;99.90;;;;;;7341736;19;109531;-70
2023/07/30 00:26:55;;;;;;;;;;;17.20;99.90;;;;;;7337346;19;109800;-69
2023/07/30 00:29:22;;;;;;;;;;;17.20;99.90;;;;;;7337954;19;108806;-69
2023/07/30 00:31:49;;;;;;;;;;;17.20;99.90;;;;;;7333912;19;110650;-69
2023/07/30 00:34:17;;;;;;;;;;;17.20;99.90;;;;;;7337243;19;109156;-70
2023/07/30 00:36:44;;;;;;;;;;;17.10;99.90;;;;;;7336781;19;108490;-70
2023/07/30 00:39:11;;;;;;;;;;;17.10;99.90;;;;;;7337492;19;108835;-69
2023/07/30 00:41:38;;;;;;;;;;;17.10;99.90;;;;;;7336410;19;110139;-71
2023/07/30 00:44:06;;;;;;;;;;;17.10;99.90;;;;;;7334263;19;110035;-70
2023/07/30 00:46:33;;;;;;;;;;;17.00;99.90;;;;;;7339761;19;109531;-69
2023/07/30 00:49:00;;;;;;;;;;;17.00;99.90;;;;;;7336702;19;108469;-69
2023/07/30 00:51:27;;;;;;;;;;;17.00;99.90;;;;;;7336426;19;108962;-69
2023/07/30 00:53:54;;;;;;;;;;;17.00;99.90;;;;;;7337032;19;109849;-69
2023/07/30 00:56:22;;;;;;;;;;;17.00;99.90;;;;;;7338008;19;108961;-68
2023/07/30 00:58:49;;;;;;;;;;;17.00;99.90;;;;;;7336016;19;108683;-71
2023/07/30 01:01:16;;;;;;;;;;;17.00;99.90;;;;;;7335641;19;109778;-70
2023/07/30 01:03:44;;;;;;;;;;;17.00;99.90;;;;;;7332835;19;109909;-69
2023/07/30 01:06:11;;;;;;;;;;;16.90;99.90;;;;;;7335222;19;108263;-69
2023/07/30 01:08:38;;;;;;;;;;;16.90;99.90;;;;;;7342790;19;109919;-69
2023/07/30 01:11:07;;;;;;;;;;;16.90;99.90;;;;;;7333832;19;109970;-71
2023/07/30 01:13:35;;;;;;;;;;;16.90;99.90;;;;;;7332165;19;110178;-69
2023/07/30 01:16:03;;;;;;;;;;;16.90;99.90;;;;;;7331311;19;108727;-70
2023/07/30 01:18:30;;;;;;;;;;;16.80;99.90;;;;;;7333126;19;109965;-69
2023/07/30 01:20:58;;;;;;;;;;;16.90;99.90;;;;;;7330652;19;109318;-69
2023/07/30 01:23:26;;;;;;;;;;;16.90;99.90;;;;;;7334572;19;108886;-69
2023/07/30 01:25:59;;;;;;;;;;;16.80;99.90;;;;;;7335465;19;114275;-69
2023/07/30 01:28:27;;;;;;;;;;;16.90;99.90;;;;;;7331091;19;110176;-69
2023/07/30 01:30:54;;;;;;;;;;;16.80;99.90;;;;;;7338906;19;109005;-69
2023/07/30 01:33:22;;;;;;;;;;;16.80;99.90;;;;;;7332429;19;110311;-69
2023/07/30 01:35:50;;;;;;;;;;;16.80;99.90;;;;;;7334260;19;108882;-69
2023/07/30 01:38:17;;;;;;;;;;;16.80;99.90;;;;;;7335853;19;109243;-69
2023/07/30 01:40:45;;;;;;;;;;;16.80;99.90;;;;;;7338269;19;109345;-69
2023/07/30 01:43:12;;;;;;;;;;;16.80;99.90;;;;;;7335406;19;108681;-69
2023/07/30 01:45:40;;;;;;;;;;;16.80;99.90;;;;;;7333120;19;109044;-69
2023/07/30 01:48:07;;;;;;;;;;;16.80;99.90;;;;;;7334784;19;110153;-69
2023/07/30 01:50:35;;;;;;;;;;;16.80;99.90;;;;;;7332855;19;110657;-70
2023/07/30 01:53:02;;;;;;;;;;;16.80;99.90;;;;;;7340867;19;109245;-69
2023/07/30 01:55:33;;;;;;;;;;;16.80;99.90;;;;;;7331853;19;119666;-70
2023/07/30 01:58:00;;;;;;;;;;;16.80;99.90;;;;;;7336526;19;108526;-70
2023/07/30 02:00:27;;;;;;;;;;;16.80;99.90;;;;;;7332318;19;110993;-69
2023/07/30 02:02:54;;;;;;;;;;;16.80;99.90;;;;;;7330211;19;110896;-69
2023/07/30 02:05:22;;;;;;;;;;;16.80;99.90;;;;;;7332345;19;111414;-69
2023/07/30 02:07:50;;;;;;;;;;;16.80;99.90;;;;;;7333142;19;108959;-69
2023/07/30 02:10:17;;;;;;;;;;;16.80;99.90;;;;;;7335373;19;110842;-70
2023/07/30 02:12:44;;;;;;;;;;;16.80;99.90;;;;;;7341259;19;108606;-70
2023/07/30 02:15:11;;;;;;;;;;;16.80;99.90;;;;;;7333723;19;108903;-69
2023/07/30 02:17:38;;;;;;;;;;;16.80;99.90;;;;;;7332851;19;113131;-70
2023/07/30 02:20:06;;;;;;;;;;;16.80;99.90;;;;;;7335391;19;110090;-70
2023/07/30 02:22:33;;;;;;;;;;;16.80;99.90;;;;;;7331017;19;108874;-70
2023/07/30 02:25:00;;;;;;;;;;;16.80;99.90;;;;;;7335102;19;109826;-71
2023/07/30 02:27:27;;;;;;;;;;;16.80;99.90;;;;;;7333331;19;112937;-71
2023/07/30 02:29:54;;;;;;;;;;;16.80;99.90;;;;;;7333214;19;108907;-74
2023/07/30 02:32:21;;;;;;;;;;;16.80;99.90;;;;;;7334239;19;109006;-75
2023/07/30 02:34:49;;;;;;;;;;;16.80;99.90;;;;;;7337702;19;110661;-73
2023/07/30 02:37:16;;;;;;;;;;;16.70;99.90;;;;;;7335877;19;108347;-75
2023/07/30 02:39:43;;;;;;;;;;;16.80;99.90;;;;;;7336250;19;109137;-74
2023/07/30 02:42:11;;;;;;;;;;;16.70;99.90;;;;;;7333029;19;108894;-72
2023/07/30 02:44:38;;;;;;;;;;;16.70;99.90;;;;;;7332309;19;108833;-70
2023/07/30 02:47:06;;;;;;;;;;;16.70;99.90;;;;;;7333872;19;110664;-70
2023/07/30 02:49:36;;;;;;;;;;;16.70;99.90;;;;;;7333024;19;109005;-70
2023/07/30 02:52:04;;;;;;;;;;;16.70;99.90;;;;;;7333530;19;109501;-70
2023/07/30 02:54:31;;;;;;;;;;;16.80;99.90;;;;;;7334090;19;110117;-70
2023/07/30 02:56:58;;;;;;;;;;;16.70;99.90;;;;;;7339539;19;110459;-87
2023/07/30 02:59:25;;;;;;;;;;;16.80;99.90;;;;;;7341842;19;109155;-87
2023/07/30 03:01:52;;;;;;;;;;;16.70;99.90;;;;;;7341482;19;109482;-87
2023/07/30 03:04:19;;;;;;;;;;;16.80;99.90;;;;;;7342925;19;108777;-86
2023/07/30 03:06:46;;;;;;;;;;;16.80;99.90;;;;;;7337841;19;110214;-87
2023/07/30 03:09:13;;;;;;;;;;;16.80;99.90;;;;;;7339783;19;109900;-87
2023/07/30 03:11:40;;;;;;;;;;;16.80;99.90;;;;;;7340158;19;109407;-87
2023/07/30 03:14:07;;;;;;;;;;;16.90;99.90;;;;;;7334810;19;111021;-88
2023/07/30 03:16:35;;;;;;;;;;;16.90;99.90;;;;;;7335650;19;108458;-87
2023/07/30 03:19:02;;;;;;;;;;;16.90;99.90;;;;;;7340847;19;108672;-87
2023/07/30 03:21:29;;;;;;;;;;;16.90;99.90;;;;;;7334215;19;108637;-87
2023/07/30 03:23:56;;;;;;;;;;;16.90;99.90;;;;;;7333019;19;111753;-87
2023/07/30 03:26:23;;;;;;;;;;;17.00;99.90;;;;;;7334921;19;110240;-87
2023/07/30 03:28:51;;;;;;;;;;;17.00;99.90;;;;;;7336358;19;108699;-86
2023/07/30 03:31:18;;;;;;;;;;;17.00;99.90;;;;;;7341024;19;111734;-87
2023/07/30 03:33:46;;;;;;;;;;;17.10;99.90;;;;;;7341948;19;110576;-87
2023/07/30 03:36:13;;;;;;;;;;;17.10;99.90;;;;;;7338992;19;108893;-86
2023/07/30 03:38:41;;;;;;;;;;;17.10;99.90;;;;;;7336751;19;110781;-87
2023/07/30 03:41:08;;;;;;;;;;;17.20;99.90;;;;;;7342728;19;112636;-87
2023/07/30 03:43:35;;;;;;;;;;;17.20;99.90;;;;;;7341129;19;108483;-87
2023/07/30 03:46:03;;;;;;;;;;;17.20;99.90;;;;;;7342039;19;110719;-88
2023/07/30 03:48:30;;;;;;;;;;;17.20;99.90;;;;;;7341796;19;108889;-87
2023/07/30 03:50:57;;;;;;;;;;;17.20;99.90;;;;;;7342938;19;109022;-87
2023/07/30 03:53:24;;;;;;;;;;;17.30;99.90;;;;;;7340265;19;109666;-87
2023/07/30 03:55:52;;;;;;;;;;;17.30;99.90;;;;;;7338872;19;109239;-86
2023/07/30 04:06:50;;;;;;;;;;;17.30;99.90;;;;;;7332024;19;110037;-69
2023/07/30 04:09:17;;;;;;;;;;;17.40;99.90;;;;;;7337701;19;109271;-69
2023/07/30 04:11:44;;;;;;;;;;;17.40;99.90;;;;;;7337840;19;110348;-69
2023/07/30 04:14:11;;;;;;;;;;;17.30;99.90;;;;;;7336357;19;109263;-69
2023/07/30 04:16:38;;;;;;;;;;;17.40;99.90;;;;;;7337054;19;110057;-69
2023/07/30 04:19:05;;;;;;;;;;;17.40;99.90;;;;;;7339050;19;108390;-69
2023/07/30 04:21:32;;;;;;;;;;;17.40;99.90;;;;;;7336531;19;109148;-69
2023/07/30 04:23:59;;;;;;;;;;;17.40;99.90;;;;;;7342667;19;108482;-69
2023/07/30 04:26:26;;;;;;;;;;;17.50;99.90;;;;;;7336000;19;109576;-69
2023/07/30 04:28:54;;;;;;;;;;;17.50;99.90;;;;;;7339452;19;109494;-70
2023/07/30 04:31:21;;;;;;;;;;;17.50;99.90;;;;;;7337624;19;109506;-69
2023/07/30 04:33:48;;;;;;;;;;;17.50;99.90;;;;;;7337126;19;109781;-69
2023/07/30 04:36:15;;;;;;;;;;;17.60;99.90;;;;;;7338660;19;108819;-69
2023/07/30 04:38:42;;;;;;;;;;;17.60;99.90;;;;;;7335154;19;108900;-69
2023/07/30 04:41:10;;;;;;;;;;;17.60;99.90;;;;;;7334416;19;111820;-69
2023/07/30 04:43:37;;;;;;;;;;;17.60;99.90;;;;;;7337252;19;109635;-70
2023/07/30 04:46:04;;;;;;;;;;;17.60;99.90;;;;;;7341838;19;109741;-69
2023/07/30 04:48:31;;;;;;;;;;;17.60;99.90;;;;;;7338534;19;109044;-68
2023/07/30 04:50:58;;;;;;;;;;;17.60;99.90;;;;;;7336068;19;108826;-69
2023/07/30 04:53:25;;;;;;;;;;;17.60;99.90;;;;;;7335707;19;109256;-71
2023/07/30 04:55:57;;;;;;;;;;;17.60;99.90;;;;;;7338193;19;109840;-69
2023/07/30 04:58:24;;;;;;;;;;;17.70;99.90;;;;;;7338109;19;109477;-69
2023/07/30 05:00:51;;;;;;;;;;;17.70;99.90;;;;;;7336737;19;110395;-71
2023/07/30 05:03:18;;;;;;;;;;;17.70;99.90;;;;;;7338033;19;108931;-69
2023/07/30 05:05:45;;;;;;;;;;;17.70;99.90;;;;;;7336069;19;109899;-69
2023/07/30 05:08:12;;;;;;;;;;;17.70;99.90;;;;;;7342849;19;108934;-69
2023/07/30 05:10:40;;;;;;;;;;;17.70;99.90;;;;;;7336298;19;109575;-69
2023/07/30 05:13:08;;;;;;;;;;;17.70;99.90;;;;;;7332732;19;110211;-70
2023/07/30 05:15:36;;;;;;;;;;;17.80;99.90;;;;;;7333449;19;109059;-69
2023/07/30 05:18:03;;;;;;;;;;;17.80;99.90;;;;;;7334292;19;109814;-69
2023/07/30 05:20:30;;;;;;;;;;;17.80;99.90;;;;;;7333968;19;109143;-71
2023/07/30 05:22:57;;;;;;;;;;;17.80;99.90;;;;;;7334962;19;110237;-72
2023/07/30 05:25:24;;;;;;;;;;;17.90;99.90;;;;;;7334427;19;108621;-63
2023/07/30 05:27:51;;;;;;;;;;;17.90;99.90;;;;;;7328384;19;110402;-64
2023/07/30 05:30:19;;;;;;;;;;;17.80;99.90;;;;;;7337213;19;108849;-64
2023/07/30 05:32:46;;;;;;;;;;;17.90;99.90;;;;;;7322947;19;110088;-65
2023/07/30 05:35:13;;;;;;;;;;;17.90;99.90;;;;;;7331335;19;111391;-64
2023/07/30 05:37:40;;;;;;;;;;;17.90;99.90;;;;;;7330269;19;110761;-69
2023/07/30 05:40:07;;;;;;;;;;;17.90;99.90;;;;;;7329475;19;110043;-70
2023/07/30 05:42:35;;;;;;;;;;;17.90;99.90;;;;;;7328666;19;109385;-68
2023/07/30 05:45:02;;;;;;;;;;;17.90;99.90;;;;;;7332584;19;109209;-64
2023/07/30 05:47:29;;;;;;;;;;;18.00;99.90;;;;;;7334095;19;112355;-64
2023/07/30 05:49:56;;;;;;;;;;;18.00;99.90;;;;;;7335146;19;108852;-64
2023/07/30 05:52:24;;;;;;;;;;;18.00;99.90;;;;;;7338770;19;108964;-71
2023/07/30 05:54:51;;;;;;;;;;;18.00;99.90;;;;;;7336080;19;108719;-71
2023/07/30 05:57:18;;;;;;;;;;;18.00;99.90;;;;;;7334446;19;110591;-74
2023/07/30 05:59:45;;;;;;;;;;;18.10;99.90;;;;;;7333880;19;109136;-65
2023/07/30 06:02:12;;;;;;;;;;;18.10;99.90;;;;;;7332495;19;108584;-73
2023/07/30 06:04:39;;;;;;;;;;;18.10;99.90;;;;;;7337047;19;109382;-63
2023/07/30 06:07:06;;;;;;;;;;;18.10;99.90;;;;;;7335451;19;110202;-64
2023/07/30 06:09:34;;;;;;;;;;;18.10;99.90;;;;;;7337142;19;108570;-67
2023/07/30 06:12:01;;;;;;;;;;;18.20;99.90;;;;;;7334749;19;109126;-68
2023/07/30 06:14:28;;;;;;;;;;;18.20;99.90;;;;;;7339418;19;109180;-68
2023/07/30 06:16:55;;;;;;;;;;;18.20;99.90;;;;;;7334457;19;109044;-67
2023/07/30 06:19:22;;;;;;;;;;;18.20;99.90;;;;;;7333998;19;110369;-72
2023/07/30 06:21:50;;;;;;;;;;;18.20;99.90;;;;;;7335917;19;109530;-69
2023/07/30 06:24:18;;;;;;;;;;;18.20;99.90;;;;;;7333538;19;109008;-67
2023/07/30 06:26:45;;;;;;;;;;;18.30;99.90;;;;;;7333964;19;109526;-72
2023/07/30 06:29:12;;;;;;;;;;;18.30;99.90;;;;;;7334002;19;109225;-66
2023/07/30 06:31:39;;;;;;;;;;;18.30;99.90;;;;;;7334865;19;109566;-69
2023/07/30 06:34:07;;;;;;;;;;;18.30;99.90;;;;;;7339220;19;109082;-66
2023/07/30 06:36:34;;;;;;;;;;;18.40;99.90;;;;;;7333618;19;108695;-65
2023/07/30 06:39:01;;;;;;;;;;;18.40;99.90;;;;;;7332938;19;109115;-70
2023/07/30 06:41:28;;;;;;;;;;;18.40;99.90;;;;;;7333536;19;109536;-64
2023/07/30 06:43:55;;;;;;;;;;;18.50;99.90;;;;;;7333971;19;109319;-69
2023/07/30 06:46:23;;;;;;;;;;;18.50;99.90;;;;;;7331888;19;109813;-72
2023/07/30 06:48:50;;;;;;;;;;;18.50;99.90;;;;;;7333545;19;108757;-73
2023/07/30 06:51:20;;;;;;;;;;;18.50;99.90;;;;;;7331806;19;109231;-68
2023/07/30 06:53:47;;;;;;;;;;;18.50;99.90;;;;;;7333417;19;109074;-64
2023/07/30 06:56:14;;;;;;;;;;;18.60;99.90;;;;;;7338845;19;108492;-64
2023/07/30 06:58:41;;;;;;;;;;;18.60;99.90;;;;;;7333174;19;108872;-65
2023/07/30 07:01:09;;;;;;;;;;;18.60;99.90;;;;;;7330224;19;108882;-63
2023/07/30 07:03:36;;;;;;;;;;;18.60;99.90;;;;;;7333832;19;108300;-63
2023/07/30 07:06:03;;;;;;;;;;;18.60;99.90;;;;;;7339598;19;109093;-63
2023/07/30 07:08:30;;;;;;;;;;;18.60;99.90;;;;;;7338985;19;109374;-63
2023/07/30 07:10:57;;;;;;;;;;;18.70;99.90;;;;;;7341622;19;108366;-63
2023/07/30 07:13:24;;;;;;;;;;;18.80;99.90;;;;;;7336760;19;109827;-63
2023/07/30 07:15:53;;;;;;;;;;;18.90;99.90;;;;;;7340646;19;109577;-63
2023/07/30 07:18:21;;;;;;;;;;;18.90;99.90;;;;;;7346489;19;109508;-63
2023/07/30 07:20:48;;;;;;;;;;;19.00;99.90;;;;;;7337689;19;109972;-63
2023/07/30 07:23:15;;;;;;;;;;;19.00;99.90;;;;;;7339807;19;109529;-63
2023/07/30 07:25:43;;;;;;;;;;;19.00;99.90;;;;;;7340188;19;109768;-64
2023/07/30 07:28:10;;;;;;;;;;;19.00;99.90;;;;;;7339389;19;110652;-64
2023/07/30 07:30:37;;;;;;;;;;;19.20;99.90;;;;;;7339520;19;109136;-64
2023/07/30 07:33:11;;;;;;;;;;;19.20;99.90;;;;;;7335586;19;110192;-65
2023/07/30 07:35:39;;;;;;;;;;;19.30;99.90;;;;;;7335173;19;108837;-64
2023/07/30 07:38:06;;;;;;;;;;;19.30;99.90;;;;;;7338421;19;109051;-64
2023/07/30 07:40:39;;;;;;;;;;;19.40;99.90;;;;;;7343648;19;109738;-63
2023/07/30 07:43:09;;;;;;;;;;;19.50;99.90;;;;;;7338170;19;109195;-64
2023/07/30 07:45:36;;;;;;;;;;;19.50;99.90;;;;;;7337767;19;110429;-64
2023/07/30 07:48:03;;;;;;;;;;;19.50;99.90;;;;;;7333892;19;108983;-64
2023/07/30 07:50:30;;;;;;;;;;;19.50;99.90;;;;;;7335554;19;109591;-64
2023/07/30 07:52:58;;;;;;;;;;;19.50;99.90;;;;;;7336513;19;109967;-64
2023/07/30 07:55:25;;;;;;;;;;;19.50;99.90;;;;;;7336152;19;108987;-65
2023/07/30 07:57:52;;;;;;;;;;;19.60;99.90;;;;;;7335532;19;109508;-64
2023/07/30 08:00:20;;;;;;;;;;;19.50;99.90;;;;;;7337934;19;108888;-64
2023/07/30 08:02:47;;;;;;;;;;;19.50;99.90;;;;;;7342238;19;108530;-64
2023/07/30 08:05:19;;;;;;;;;;;19.60;99.90;;;;;;7334031;19;109726;-65
2023/07/30 08:07:46;;;;;;;;;;;19.70;99.90;;;;;;7336683;19;108998;-65
2023/07/30 08:10:14;;;;;;;;;;;19.80;99.90;;;;;;7338174;19;109075;-64
2023/07/30 08:12:41;;;;;;;;;;;19.90;99.90;;;;;;7338567;19;109519;-65
2023/07/30 08:15:08;;;;;;;;;;;20.00;99.90;;;;;;7336496;19;108777;-69
2023/07/30 08:17:36;;;;;;;;;;;20.10;99.90;;;;;;7337568;19;109543;-65
2023/07/30 08:20:03;;;;;;;;;;;20.20;99.90;;;;;;7336218;19;109622;-65
2023/07/30 08:22:30;;;;;;;;;;;20.20;99.90;;;;;;7337281;19;108962;-65
2023/07/30 08:24:57;;;;;;;;;;;20.20;99.90;;;;;;7344599;19;108675;-66
2023/07/30 08:27:24;;;;;;;;;;;20.30;99.90;;;;;;7334543;19;108743;-65
2023/07/30 08:29:52;;;;;;;;;;;20.30;99.90;;;;;;7335537;19;108958;-64
2023/07/30 08:32:19;;;;;;;;;;;20.30;99.90;;;;;;7334963;19;109401;-64
2023/07/30 08:34:46;;;;;;;;;;;20.20;99.90;;;;;;7337009;19;108501;-65
2023/07/30 08:37:14;;;;;;;;;;;20.10;99.90;;;;;;7336443;19;108866;-65
2023/07/30 08:39:41;;;;;;;;;;;20.10;99.90;;;;;;7334251;19;109900;-64
2023/07/30 08:42:08;;;;;;;;;;;20.20;99.90;;;;;;7337682;19;108827;-64
2023/07/30 08:44:35;;;;;;;;;;;20.20;99.90;;;;;;7341262;19;109281;-64
2023/07/30 08:47:02;;;;;;;;;;;20.30;99.90;;;;;;7337519;19;108775;-64
2023/07/30 08:49:32;;;;;;;;;;;20.30;99.90;;;;;;7335205;19;109546;-64
2023/07/30 08:52:01;;;;;;;;;;;20.30;99.90;;;;;;7334509;19;110068;-65
2023/07/30 08:54:30;;;;;;;;;;;20.40;99.90;;;;;;7336021;19;113315;-64
2023/07/30 08:57:01;;;;;;;;;;;20.40;99.90;;;;;;7334713;19;109162;-65
2023/07/30 08:59:33;;;;;;;;;;;20.50;99.90;;;;;;7335893;19;110821;-65
2023/07/30 09:02:01;;;;;;;;;;;20.50;99.90;;;;;;7335874;19;109498;-65
2023/07/30 09:04:29;;;;;;;;;;;20.60;99.90;;;;;;7337246;19;109580;-64
2023/07/30 09:06:56;;;;;;;;;;;20.70;99.90;;;;;;7337794;19;109654;-64
2023/07/30 09:09:24;;;;;;;;;;;20.90;99.90;;;;;;7337826;19;109312;-65
2023/07/30 09:11:54;;;;;;;;;;;21.00;99.90;;;;;;7336322;19;109371;-64
2023/07/30 09:14:22;;;;;;;;;;;21.10;99.90;;;;;;7337263;19;108571;-64
2023/07/30 09:16:56;;;;;;;;;;;21.10;99.90;;;;;;7338099;19;109160;-65
2023/07/30 09:19:23;;;;;;;;;;;21.20;99.90;;;;;;7337612;19;109409;-64
2023/07/30 09:21:50;;;;;;;;;;;21.20;99.90;;;;;;7335543;19;108315;-65
2023/07/30 09:24:21;;;;;;;;;;;21.20;99.90;;;;;;7333055;19;109155;-65
2023/07/30 09:26:48;;;;;;;;;;;21.20;99.90;;;;;;7331075;19;113307;-64
2023/07/30 09:29:16;;;;;;;;;;;21.20;99.90;;;;;;7338470;19;110028;-64
2023/07/30 09:31:47;;;;;;;;;;;21.10;99.90;;;;;;7337112;19;111821;-65
2023/07/30 09:34:16;;;;;;;;;;;21.10;99.90;;;;;;7334173;19;108685;-65
2023/07/30 09:36:44;;;;;;;;;;;21.10;99.90;;;;;;7336567;19;108801;-65
2023/07/30 09:39:15;;;;;;;;;;;21.10;99.90;;;;;;7333621;19;109101;-64
2023/07/30 09:41:43;;;;;;;;;;;21.20;99.90;;;;;;7336504;19;109844;-65
2023/07/30 09:44:10;;;;;;;;;;;21.20;99.90;;;;;;7335487;19;108827;-65
2023/07/30 09:46:44;;;;;;;;;;;21.30;99.90;;;;;;7336063;19;109568;-65
2023/07/30 09:49:11;;;;;;;;;;;21.30;99.90;;;;;;7334867;19;110722;-65
2023/07/30 09:51:42;;;;;;;;;;;21.30;99.90;;;;;;7338878;19;110384;-73
2023/07/30 09:54:12;;;;;;;;;;;21.30;99.90;;;;;;7333393;19;108361;-66
2023/07/30 09:56:40;;;;;;;;;;;21.30;99.90;;;;;;7337547;19;110604;-70
2023/07/30 09:59:07;;;;;;;;;;;21.30;99.90;;;;;;7334408;19;110159;-73
2023/07/30 10:01:41;;;;;;;;;;;21.40;99.90;;;;;;7336201;19;108492;-68
2023/07/30 10:04:09;;;;;;;;;;;21.40;99.90;;;;;;7335249;19;112546;-69
2023/07/30 10:06:42;;;;;;;;;;;21.40;99.90;;;;;;7336824;19;110048;-65
2023/07/30 10:09:10;;;;;;;;;;;21.40;99.90;;;;;;7334377;19;108425;-91
2023/07/30 10:11:37;;;;;;;;;;;21.40;99.90;;;;;;7336489;19;111734;-91
2023/07/30 10:14:06;;;;;;;;;;;21.40;99.90;;;;;;7342997;19;113050;-92
2023/07/30 10:16:33;;;;;;;;;;;21.50;99.90;;;;;;7333314;19;112142;-66
2023/07/30 10:19:01;;;;;;;;;;;21.60;99.90;;;;;;7333420;19;109866;-64
2023/07/30 10:21:29;;;;;;;;;;;21.60;99.90;;;;;;7336116;19;109203;-65
2023/07/30 10:24:00;;;;;;;;;;;21.60;99.90;;;;;;7334627;19;108699;-65
2023/07/30 10:26:29;;;;;;;;;;;21.60;99.90;;;;;;7333109;19;109511;-65
2023/07/30 10:29:15;;;;;;;;;;;21.70;99.90;;;;;;7334087;19;108428;-65
2023/07/30 10:31:44;;;;;;;;;;;21.70;99.90;;;;;;7336213;19;109239;-64
2023/07/30 10:34:11;;;;;;;;;;;21.70;99.90;;;;;;7331848;19;109933;-64
2023/07/30 10:39:14;;;;;;;;;;;21.70;99.90;;;;;;7334270;19;109603;-91
2023/07/30 10:47:28;;;;;;;;;;;22.10;99.90;;;;;;7330852;19;109954;-65
2023/07/30 10:50:03;;;;;;;;;;;22.20;99.90;;;;;;7334100;19;109221;-64
2023/07/30 10:52:30;;;;;;;;;;;22.30;99.90;;;;;;7332289;19;110634;-65
2023/07/30 10:55:00;;;;;;;;;;;22.50;99.90;;;;;;7333590;19;109403;-65
2023/07/30 10:57:31;;;;;;;;;;;22.60;99.90;;;;;;7336687;19;109243;-65
2023/07/30 10:59:59;;;;;;;;;;;22.70;99.90;;;;;;7332665;19;111901;-66
2023/07/30 11:02:27;;;;;;;;;;;22.80;99.90;;;;;;7330908;19;109280;-65
2023/07/30 11:04:55;;;;;;;;;;;22.90;99.90;;;;;;7337179;19;108548;-65
2023/07/30 11:07:22;;;;;;;;;;;23.00;99.90;;;;;;7332817;19;109866;-65
2023/07/30 11:09:58;;;;;;;;;;;23.20;99.90;;;;;;7334860;19;108912;-65
2023/07/30 11:12:25;;;;;;;;;;;23.30;99.90;;;;;;7335310;19;109360;-65
2023/07/30 11:14:59;;;;;;;;;;;23.30;99.90;;;;;;7333193;19;109584;-65
2023/07/30 11:17:26;;;;;;;;;;;23.20;99.90;;;;;;7331595;19;110105;-65
2023/07/30 11:19:54;;;;;;;;;;;23.20;99.90;;;;;;7336541;19;109360;-65
2023/07/30 11:22:29;;;;;;;;;;;23.20;99.90;;;;;;7329957;19;108904;-65
2023/07/30 11:24:57;;;;;;;;;;;23.10;99.90;;;;;;7331750;19;109804;-65
2023/07/30 11:27:24;;;;;;;;;;;23.10;99.90;;;;;;7330619;19;108927;-65
2023/07/30 11:29:55;;;;;;;;;;;22.90;99.90;;;;;;7332171;19;109592;-65
2023/07/30 11:32:25;;;;;;;;;;;22.80;99.90;;;;;;7330746;19;108617;-65
2023/07/30 11:34:53;;;;;;;;;;;22.70;99.90;;;;;;7330810;19;109152;-65
2023/07/30 11:37:21;;;;;;;;;;;22.50;99.90;;;;;;7330409;19;108908;-65
2023/07/30 11:39:48;;;;;;;;;;;22.50;99.90;;;;;;7332641;19;108584;-65
2023/07/30 11:42:15;;;;;;;;;;;22.30;99.90;;;;;;7336852;19;109610;-65
2023/07/30 11:44:44;;;;;;;;;;;22.20;99.90;;;;;;7331240;19;110086;-65
2023/07/30 11:47:11;;;;;;;;;;;22.30;99.90;;;;;;7330880;19;110232;-65
2023/07/30 11:49:38;;;;;;;;;;;22.40;99.90;;;;;;7332468;19;108417;-64
2023/07/30 11:52:05;;;;;;;;;;;22.70;99.90;;;;;;7339854;19;108581;-65
2023/07/30 11:54:32;;;;;;;;;;;22.90;99.90;;;;;;7334302;19;109661;-65
2023/07/30 11:56:59;;;;;;;;;;;22.90;99.90;;;;;;7340448;19;109085;-64
2023/07/30 11:59:27;;;;;;;;;;;23.00;99.90;;;;;;7337137;19;109467;-65
2023/07/30 12:01:54;;;;;;;;;;;23.20;99.90;;;;;;7339486;19;110058;-65
2023/07/30 12:04:21;;;;;;;;;;;23.20;99.90;;;;;;7343985;19;109148;-65
2023/07/30 12:06:50;;;;;;;;;;;23.30;99.90;;;;;;7337430;19;114201;-65
2023/07/30 12:09:25;;;;;;;;;;;23.40;99.90;;;;;;7339143;19;108478;-64
2023/07/30 12:11:57;;;;;;;;;;;23.30;99.90;;;;;;7338164;19;108680;-65
2023/07/30 12:14:32;;;;;;;;;;;23.20;99.90;;;;;;7337076;19;110187;-65
2023/07/30 12:17:00;;;;;;;;;;;23.20;99.90;;;;;;7337286;19;109587;-65
2023/07/30 12:19:27;;;;;;;;;;;23.20;99.90;;;;;;7336841;19;110327;-65
2023/07/30 12:21:54;;;;;;;;;;;23.20;99.90;;;;;;7338013;19;110380;-65
2023/07/30 12:24:22;;;;;;;;;;;23.10;99.90;;;;;;7335186;19;109119;-65
2023/07/30 12:26:49;;;;;;;;;;;23.10;99.90;;;;;;7343218;19;109283;-65
2023/07/30 12:29:21;;;;;;;;;;;23.10;99.90;;;;;;7339798;19;109158;-65
2023/07/30 12:31:51;;;;;;;;;;;23.10;99.90;;;;;;7339826;19;108919;-65
2023/07/30 12:34:19;;;;;;;;;;;23.30;99.90;;;;;;7334950;19;110947;-65
2023/07/30 12:36:46;;;;;;;;;;;23.50;99.90;;;;;;7338794;19;109828;-65
2023/07/30 12:39:14;;;;;;;;;;;23.70;99.90;;;;;;7336642;19;108283;-65
2023/07/30 12:41:41;;;;;;;;;;;23.80;99.90;;;;;;7335701;19;109406;-64
2023/07/30 12:44:09;;;;;;;;;;;24.00;99.90;;;;;;7336492;19;109484;-65
2023/07/30 12:46:36;;;;;;;;;;;24.20;99.90;;;;;;7342837;19;108685;-64
2023/07/30 12:49:04;;;;;;;;;;;24.40;99.90;;;;;;7334962;19;108898;-62
2023/07/30 12:51:32;;;;;;;;;;;24.70;99.90;;;;;;7336428;19;110618;-65
2023/07/30 12:53:59;;;;;;;;;;;24.80;99.90;;;;;;7335357;19;110105;-62
2023/07/30 12:56:26;;;;;;;;;;;24.80;99.90;;;;;;7337037;19;108416;-65
2023/07/30 12:58:53;;;;;;;;;;;25.00;99.90;;;;;;7336213;19;112738;-65
2023/07/30 13:01:21;;;;;;;;;;;25.10;99.90;;;;;;7333868;19;109144;-65
2023/07/30 13:03:50;;;;;;;;;;;25.20;99.90;;;;;;7337470;19;108487;-65
2023/07/30 13:06:17;;;;;;;;;;;25.20;99.90;;;;;;7334163;19;108628;-65
2023/07/30 13:08:44;;;;;;;;;;;25.00;99.90;;;;;;7340950;19;109796;-65
2023/07/30 13:11:11;;;;;;;;;;;24.80;99.90;;;;;;7335791;19;108451;-64
2023/07/30 13:13:39;;;;;;;;;;;24.80;99.90;;;;;;7334305;19;110758;-65
2023/07/30 13:16:06;;;;;;;;;;;25.00;99.90;;;;;;7334886;19;108988;-66
2023/07/30 13:18:34;;;;;;;;;;;25.10;99.90;;;;;;7337695;19;108778;-65
2023/07/30 13:21:01;;;;;;;;;;;25.20;99.90;;;;;;7334981;19;109125;-65
2023/07/30 13:23:29;;;;;;;;;;;25.40;99.90;;;;;;7333432;19;109161;-65
2023/07/30 13:25:56;;;;;;;;;;;25.40;99.90;;;;;;7331879;19;109344;-65
2023/07/30 13:28:23;;;;;;;;;;;25.40;99.90;;;;;;7331708;19;108474;-65
2023/07/30 13:30:50;;;;;;;;;;;25.40;99.90;;;;;;7338026;19;108816;-62
2023/07/30 13:33:18;;;;;;;;;;;25.50;99.90;;;;;;7329658;19;110348;-65
2023/07/30 13:35:45;;;;;;;;;;;25.60;99.90;;;;;;7329796;19;108734;-65
2023/07/30 13:38:12;;;;;;;;;;;25.80;99.90;;;;;;7329871;19;108705;-65
2023/07/30 13:40:40;;;;;;;;;;;25.80;99.90;;;;;;7331412;19;109453;-63
2023/07/30 13:43:07;;;;;;;;;;;25.80;99.90;;;;;;7330366;19;110080;-64
2023/07/30 13:45:34;;;;;;;;;;;25.90;99.90;;;;;;7328732;19;108744;-66
2023/07/30 13:48:01;;;;;;;;;;;26.00;99.90;;;;;;7331890;19;110569;-65
2023/07/30 13:50:29;;;;;;;;;;;26.10;99.90;;;;;;7330823;19;110314;-65
2023/07/30 13:52:56;;;;;;;;;;;26.10;99.90;;;;;;7338148;19;110274;-62
2023/07/30 13:55:23;;;;;;;;;;;26.00;99.90;;;;;;7332982;19;109628;-64
2023/07/30 13:57:50;;;;;;;;;;;26.10;99.90;;;;;;7332264;19;108694;-65
2023/07/30 14:00:17;;;;;;;;;;;26.20;98.80;;;;;;7334273;19;108520;-65
2023/07/30 14:02:44;;;;;;;;;;;26.10;99.60;;;;;;7332351;19;108954;-65
2023/07/30 14:05:11;;;;;;;;;;;26.10;99.50;;;;;;7336264;19;109397;-65
2023/07/30 14:07:40;;;;;;;;;;;26.00;98.70;;;;;;7333711;19;110910;-65
2023/07/30 14:10:07;;;;;;;;;;;25.90;98.70;;;;;;7332174;19;110893;-62
2023/07/30 14:12:35;;;;;;;;;;;25.90;99.10;;;;;;7332874;19;108827;-65
2023/07/30 14:15:02;;;;;;;;;;;26.00;98.60;;;;;;7338176;19;109751;-65
2023/07/30 14:17:29;;;;;;;;;;;26.10;98.50;;;;;;7333314;19;111656;-65
2023/07/30 14:19:56;;;;;;;;;;;26.10;98.00;;;;;;7333203;19;109201;-65
2023/07/30 14:22:23;;;;;;;;;;;26.00;98.10;;;;;;7334320;19;108737;-65
2023/07/30 14:24:50;;;;;;;;;;;26.00;99.10;;;;;;7332584;19;108676;-62